createdAt,value
2022-12-20T00:01:29.544Z,10.80
2022-12-20T00:03:59.555Z,10.13
2022-12-20T00:06:26.454Z,9.98
2022-12-20T00:08:59.694Z,10.85
2022-12-20T00:11:27.496Z,11.05
2022-12-20T00:13:55.681Z,10.25
2022-12-20T00:16:24.567Z,10.27
2022-12-20T00:18:52.355Z,10.25
2022-12-20T00:21:18.862Z,10.32
2022-12-20T00:23:45.334Z,10.57
2022-12-20T00:26:14.678Z,11.00
2022-12-20T00:28:41.881Z,11.15
2022-12-20T00:33:38.265Z,9.23
2022-12-20T00:36:05.780Z,10.57
2022-12-20T00:38:33.137Z,10.80
2022-12-20T00:41:08.068Z,10.55
2022-12-20T00:43:36.441Z,10.20
2022-12-20T00:46:03.293Z,9.38
2022-12-20T00:48:31.212Z,10.02
2022-12-20T00:50:59.136Z,9.38
2022-12-20T00:53:26.699Z,10.02
2022-12-20T00:55:53.361Z,10.25
2022-12-20T00:58:20.335Z,10.50
2022-12-20T01:00:52.079Z,9.75
2022-12-20T01:03:23.224Z,10.10
2022-12-20T01:05:52.850Z,9.30
2022-12-20T01:08:20.302Z,10.10
2022-12-20T01:10:47.469Z,11.00
2022-12-20T01:13:14.511Z,9.98
2022-12-20T01:15:41.033Z,10.00
2022-12-20T01:18:07.593Z,10.45
2022-12-20T01:20:34.069Z,10.60
2022-12-20T01:23:00.626Z,10.10
2022-12-20T01:25:27.100Z,9.70
2022-12-20T01:27:53.601Z,10.25
2022-12-20T01:30:20.082Z,10.23
2022-12-20T01:32:46.690Z,10.07
2022-12-20T01:35:13.148Z,9.45
2022-12-20T01:37:39.835Z,10.07
2022-12-20T01:40:07.080Z,8.13
2022-12-20T01:42:33.620Z,11.38
2022-12-20T01:45:00.248Z,9.13
2022-12-20T01:47:30.225Z,10.35
2022-12-20T01:49:57.939Z,9.02
2022-12-20T01:52:44.931Z,10.48
2022-12-20T01:55:23.219Z,9.82
2022-12-20T01:58:02.950Z,9.18
2022-12-20T02:00:29.811Z,9.35
2022-12-20T02:02:59.741Z,10.55
2022-12-20T02:05:26.814Z,10.15
2022-12-20T02:07:55.294Z,10.70
2022-12-20T02:10:24.549Z,8.98
2022-12-20T02:12:58.056Z,10.35
2022-12-20T02:15:24.434Z,9.82
2022-12-20T02:17:50.819Z,8.45
2022-12-20T02:20:35.949Z,9.23
2022-12-20T02:23:08.373Z,10.27
2022-12-20T02:26:02.845Z,10.13
2022-12-20T02:29:00.794Z,9.43
2022-12-20T02:31:30.394Z,9.35
2022-12-20T02:33:58.059Z,9.40
2022-12-20T02:36:25.548Z,9.43
2022-12-20T02:38:52.650Z,9.95
2022-12-20T02:41:36.262Z,9.40
2022-12-20T02:44:26.263Z,9.73
2022-12-20T02:46:54.112Z,10.23
2022-12-20T02:49:23.590Z,10.32
2022-12-20T02:51:52.394Z,9.93
2022-12-20T02:54:19.530Z,9.50
2022-12-20T02:56:51.623Z,9.30
2022-12-20T02:59:28.907Z,10.23
2022-12-20T03:01:56.696Z,10.02
2022-12-20T03:04:25.880Z,9.63
2022-12-20T03:07:07.543Z,8.57
2022-12-20T03:09:35.846Z,8.93
2022-12-20T03:14:30.726Z,9.48
2022-12-20T03:16:59.787Z,9.85
2022-12-20T03:19:26.379Z,9.07
2022-12-20T03:21:52.917Z,10.25
2022-12-20T03:24:19.417Z,9.82
2022-12-20T03:26:46.485Z,8.55
2022-12-20T03:29:13.039Z,8.50
2022-12-20T03:31:40.354Z,9.93
2022-12-20T03:34:07.442Z,9.15
2022-12-20T03:36:34.761Z,9.85
2022-12-20T03:39:03.953Z,9.63
2022-12-20T03:41:34.408Z,10.15
2022-12-20T03:44:01.110Z,10.40
2022-12-20T03:46:28.027Z,8.90
2022-12-20T03:48:55.065Z,9.55
2022-12-20T03:51:22.288Z,10.10
2022-12-20T03:53:48.808Z,10.18
2022-12-20T03:56:15.704Z,8.95
2022-12-20T03:58:43.330Z,10.05
2022-12-20T04:01:21.564Z,10.18
2022-12-20T04:03:49.104Z,10.32
2022-12-20T04:06:16.012Z,11.02
2022-12-20T04:08:42.778Z,9.90
2022-12-20T04:11:16.563Z,10.85
2022-12-20T04:13:54.549Z,10.05
2022-12-20T04:16:23.977Z,9.60
2022-12-20T04:18:51.201Z,9.30
2022-12-20T04:21:23.112Z,10.40
2022-12-20T04:23:51.363Z,10.45
2022-12-20T04:26:18.001Z,10.73
2022-12-20T04:28:45.376Z,9.82
2022-12-20T04:31:13.528Z,9.00
2022-12-20T04:33:43.155Z,9.20
2022-12-20T04:36:10.207Z,9.90
2022-12-20T04:38:38.947Z,10.30
2022-12-20T04:41:06.101Z,9.65
2022-12-20T04:43:43.696Z,9.93
2022-12-20T04:46:10.868Z,9.75
2022-12-20T04:48:58.343Z,9.27
2022-12-20T04:51:26.194Z,9.57
2022-12-20T04:53:52.901Z,10.93
2022-12-20T04:56:29.666Z,9.95
2022-12-20T04:59:03.281Z,9.98
2022-12-20T05:01:30.356Z,9.55
2022-12-20T05:03:57.161Z,7.97
2022-12-20T05:06:26.316Z,10.52
2022-12-20T05:08:52.798Z,10.35
2022-12-20T05:11:19.357Z,9.43
2022-12-20T05:13:46.758Z,9.05
2022-12-20T05:16:16.440Z,8.82
2022-12-20T05:18:48.441Z,10.25
2022-12-20T05:21:34.717Z,10.32
2022-12-20T05:24:21.078Z,9.93
2022-12-20T05:27:13.738Z,8.63
2022-12-20T05:29:40.236Z,9.25
2022-12-20T05:32:06.849Z,9.68
2022-12-20T05:34:37.815Z,9.65
2022-12-20T05:37:04.384Z,9.05
2022-12-20T05:42:04.483Z,8.73
2022-12-20T05:44:31.031Z,8.90
2022-12-20T05:46:57.753Z,9.13
2022-12-20T05:49:28.684Z,9.55
2022-12-20T05:51:56.601Z,8.75
2022-12-20T05:54:25.389Z,8.77
2022-12-20T05:56:57.093Z,9.50
2022-12-20T05:59:32.074Z,9.25
2022-12-20T06:01:58.721Z,9.13
2022-12-20T06:04:25.973Z,8.88
2022-12-20T06:06:52.567Z,8.93
2022-12-20T06:09:19.812Z,10.15
2022-12-20T06:12:01.394Z,9.20
2022-12-20T06:14:29.376Z,9.55
2022-12-20T06:16:57.463Z,8.40
2022-12-20T06:19:24.046Z,8.60
2022-12-20T06:21:53.904Z,8.63
2022-12-20T06:24:27.544Z,10.18
2022-12-20T06:26:54.458Z,8.07
2022-12-20T06:29:21.200Z,8.57
2022-12-20T06:31:52.003Z,8.30
2022-12-20T06:34:18.997Z,8.43
2022-12-20T06:36:45.595Z,9.15
2022-12-20T06:39:17.512Z,8.63
2022-12-20T06:41:52.118Z,7.55
2022-12-20T06:44:18.794Z,7.80
2022-12-20T06:46:45.416Z,8.68
2022-12-20T06:49:11.929Z,8.30
2022-12-20T06:51:38.468Z,8.30
2022-12-20T06:54:05.136Z,8.63
2022-12-20T06:56:40.846Z,8.65
2022-12-20T06:59:09.791Z,8.18
2022-12-20T07:01:36.469Z,7.80
2022-12-20T07:04:03.174Z,6.57
2022-12-20T07:06:29.703Z,7.22
2022-12-20T07:08:56.265Z,6.75
2022-12-20T07:11:22.776Z,7.07
2022-12-20T07:13:50.274Z,7.35
2022-12-20T07:16:16.846Z,7.57
2022-12-20T07:18:43.517Z,7.90
2022-12-20T07:21:10.048Z,7.50
2022-12-20T07:23:36.530Z,7.70
2022-12-20T07:26:03.930Z,8.38
2022-12-20T07:28:30.622Z,8.05
2022-12-20T07:31:01.652Z,8.00
2022-12-20T07:33:28.556Z,7.63
2022-12-20T07:36:02.720Z,6.57
2022-12-20T07:38:29.919Z,7.53
2022-12-20T07:40:56.411Z,6.65
2022-12-20T07:43:22.915Z,6.82
2022-12-20T07:45:54.890Z,7.00
2022-12-20T07:48:22.116Z,7.25
2022-12-20T07:50:48.855Z,6.90
2022-12-20T07:53:15.805Z,7.20
2022-12-20T07:55:42.625Z,6.53
2022-12-20T07:58:10.049Z,7.05
2022-12-20T08:00:37.443Z,8.18
2022-12-20T08:03:10.546Z,7.50
2022-12-20T08:05:39.176Z,6.82
2022-12-20T08:08:06.168Z,7.00
2022-12-20T08:10:32.916Z,7.20
2022-12-20T08:12:59.574Z,6.70
2022-12-20T08:15:26.578Z,7.35
2022-12-20T08:17:53.136Z,6.68
2022-12-20T08:20:19.826Z,6.72
2022-12-20T08:22:46.297Z,6.85
2022-12-20T08:25:12.909Z,6.72
2022-12-20T08:27:39.458Z,6.25
2022-12-20T08:30:08.333Z,7.35
2022-12-20T08:32:34.828Z,6.55
2022-12-20T08:35:01.290Z,7.15
2022-12-20T08:37:27.900Z,8.40
2022-12-20T08:39:54.449Z,8.10
2022-12-20T08:42:21.581Z,6.57
2022-12-20T08:44:48.139Z,8.95
2022-12-20T08:47:15.363Z,7.30
2022-12-20T08:49:47.353Z,6.60
2022-12-20T08:52:14.243Z,6.60
2022-12-20T08:54:40.704Z,7.70
2022-12-20T08:57:07.165Z,9.13
2022-12-20T08:59:33.836Z,7.63
2022-12-20T09:02:00.434Z,10.20
2022-12-20T09:04:26.992Z,14.85
2022-12-20T09:06:53.477Z,12.02
2022-12-20T09:09:20.074Z,7.28
2022-12-20T09:11:46.689Z,6.72
2022-12-20T09:14:13.167Z,6.43
2022-12-20T09:16:39.656Z,6.25
2022-12-20T09:19:06.792Z,6.60
2022-12-20T09:21:34.465Z,6.43
2022-12-20T09:24:01.032Z,6.80
2022-12-20T09:26:27.613Z,6.05
2022-12-20T09:28:54.152Z,10.63
2022-12-20T09:31:23.696Z,10.32
2022-12-20T09:33:53.523Z,7.63
2022-12-20T09:36:21.738Z,6.68
2022-12-20T09:41:38.208Z,7.10
2022-12-20T09:44:15.200Z,7.35
2022-12-20T09:46:42.609Z,7.80
2022-12-20T09:49:15.297Z,7.35
2022-12-20T09:51:58.547Z,6.47
2022-12-20T09:54:44.237Z,7.57
2022-12-20T09:57:48.023Z,5.75
2022-12-20T10:00:17.032Z,6.30
2022-12-20T10:03:00.208Z,6.50
2022-12-20T10:05:40.788Z,6.65
2022-12-20T10:08:25.467Z,6.20
2022-12-20T10:10:57.788Z,6.75
2022-12-20T10:13:35.449Z,5.88
2022-12-20T10:16:19.578Z,7.53
2022-12-20T10:19:30.277Z,5.65
2022-12-20T10:22:25.533Z,6.03
2022-12-20T10:25:17.216Z,5.70
2022-12-20T10:27:45.420Z,6.50
2022-12-20T10:32:47.690Z,5.68
2022-12-20T10:35:37.917Z,5.20
2022-12-20T10:38:12.401Z,5.03
2022-12-20T10:43:49.311Z,6.05
2022-12-20T10:46:18.921Z,5.93
2022-12-20T10:48:47.328Z,5.32
2022-12-20T10:51:22.579Z,6.22
2022-12-20T10:53:53.345Z,6.72
2022-12-20T10:56:21.546Z,5.88
2022-12-20T10:59:17.540Z,6.28
2022-12-20T11:01:46.162Z,5.65
2022-12-20T11:04:25.196Z,5.97
2022-12-20T11:06:52.151Z,5.80
2022-12-20T11:09:23.012Z,5.85
2022-12-20T11:12:04.593Z,5.60
2022-12-20T11:14:38.747Z,5.80
2022-12-20T11:17:34.154Z,5.60
2022-12-20T11:20:26.526Z,5.60
2022-12-20T11:23:07.960Z,6.78
2022-12-20T11:25:43.320Z,6.60
2022-12-20T11:28:32.083Z,6.20
2022-12-20T11:31:21.228Z,6.25
2022-12-20T11:33:58.330Z,5.20
2022-12-20T11:36:37.322Z,4.93
2022-12-20T11:39:21.789Z,4.03
2022-12-20T11:42:14.631Z,5.03
2022-12-20T11:44:58.860Z,4.80
2022-12-20T11:47:48.641Z,4.03
2022-12-20T11:50:33.277Z,4.22
2022-12-20T11:53:16.767Z,4.07
2022-12-20T11:55:47.029Z,4.45
2022-12-20T11:58:21.196Z,4.53
2022-12-20T12:00:53.758Z,5.25
2022-12-20T12:03:37.356Z,4.80
2022-12-20T12:06:11.944Z,4.82
2022-12-20T12:11:39.986Z,5.00
2022-12-20T12:14:02.377Z,5.22
2022-12-20T12:16:34.275Z,4.80
2022-12-20T12:19:01.462Z,5.60
2022-12-20T12:21:32.523Z,6.38
2022-12-20T12:24:01.987Z,6.13
2022-12-20T12:26:42.103Z,6.80
2022-12-20T12:29:08.603Z,5.57
2022-12-20T12:31:39.951Z,5.82
2022-12-20T12:34:18.989Z,5.80
2022-12-20T12:37:24.630Z,5.72
2022-12-20T12:42:38.499Z,5.32
2022-12-20T12:45:07.072Z,5.55
2022-12-20T12:47:59.759Z,5.50
2022-12-20T12:50:32.500Z,6.00
2022-12-20T12:53:06.261Z,6.53
2022-12-20T12:55:37.944Z,6.20
2022-12-20T12:58:24.473Z,5.90
2022-12-20T13:01:18.457Z,6.85
2022-12-20T13:03:48.422Z,5.18
2022-12-20T13:06:38.465Z,5.80
2022-12-20T13:09:11.004Z,6.35
2022-12-20T13:11:46.570Z,5.35
2022-12-20T13:14:25.510Z,5.25
2022-12-20T13:17:25.570Z,5.03
2022-12-20T13:19:51.312Z,5.70
2022-12-20T13:22:17.792Z,5.78
2022-12-20T13:25:02.891Z,6.10
2022-12-20T13:27:35.679Z,5.63
2022-12-20T13:30:26.328Z,5.78
2022-12-20T13:32:55.591Z,5.50
2022-12-20T13:35:25.243Z,5.50
2022-12-20T13:38:06.248Z,7.10
2022-12-20T13:40:46.049Z,6.38
2022-12-20T13:43:24.284Z,6.60
2022-12-20T13:45:54.637Z,6.50
2022-12-20T13:48:39.869Z,6.65
2022-12-20T13:51:08.058Z,6.03
2022-12-20T13:53:35.068Z,6.07
2022-12-20T13:56:29.947Z,5.22
2022-12-20T13:58:59.105Z,6.18
2022-12-20T14:01:26.412Z,6.00
2022-12-20T14:03:53.731Z,5.07
2022-12-20T14:06:26.612Z,4.90
2022-12-20T14:08:53.732Z,5.70
2022-12-20T14:11:28.217Z,4.82
2022-12-20T14:16:31.893Z,4.70
2022-12-20T14:19:06.737Z,4.32
2022-12-20T14:21:46.059Z,4.32
2022-12-20T14:24:16.073Z,4.80
2022-12-20T14:26:44.827Z,4.47
2022-12-20T14:29:28.180Z,4.72
2022-12-20T14:31:54.660Z,5.57
2022-12-20T14:34:29.460Z,5.43
2022-12-20T14:37:32.119Z,5.50
2022-12-20T14:40:04.195Z,5.50
2022-12-20T14:42:35.468Z,4.75
2022-12-20T14:45:06.977Z,4.85
2022-12-20T14:47:33.488Z,4.95
2022-12-20T14:50:01.691Z,5.35
2022-12-20T14:52:40.099Z,5.93
2022-12-20T14:55:19.642Z,4.95
2022-12-20T14:57:48.716Z,5.65
2022-12-20T15:00:24.459Z,5.75
2022-12-20T15:02:59.206Z,6.40
2022-12-20T15:05:35.416Z,5.93
2022-12-20T15:08:23.520Z,5.70
2022-12-20T15:11:08.288Z,5.70
2022-12-20T15:13:42.773Z,5.97
2022-12-20T15:16:18.489Z,6.45
2022-12-20T15:18:46.223Z,6.20
2022-12-20T15:21:25.659Z,7.18
2022-12-20T15:23:56.569Z,7.40
2022-12-20T15:26:26.331Z,6.90
2022-12-20T15:28:56.430Z,6.85
2022-12-20T15:31:32.382Z,6.53
2022-12-20T15:33:59.351Z,7.03
2022-12-20T15:36:27.946Z,7.00
2022-12-20T15:39:14.774Z,6.55
2022-12-20T15:44:18.524Z,6.75
2022-12-20T15:46:45.536Z,6.75
2022-12-20T15:49:36.115Z,6.72
2022-12-20T15:52:03.222Z,6.80
2022-12-20T15:54:32.969Z,7.40
2022-12-20T15:57:04.378Z,6.88
2022-12-20T16:02:28.262Z,7.55
2022-12-20T16:04:55.376Z,7.75
2022-12-20T16:07:22.212Z,7.28
2022-12-20T16:09:48.722Z,7.40
2022-12-20T16:12:21.604Z,7.38
2022-12-20T16:14:48.120Z,7.43
2022-12-20T16:17:15.451Z,8.07
2022-12-20T16:19:43.175Z,8.77
2022-12-20T16:22:16.048Z,8.32
2022-12-20T16:24:43.459Z,8.45
2022-12-20T16:27:10.186Z,8.18
2022-12-20T16:29:36.651Z,8.15
2022-12-20T16:32:07.926Z,7.70
2022-12-20T16:34:34.419Z,7.15
2022-12-20T16:37:00.926Z,7.57
2022-12-20T16:39:27.424Z,7.50
2022-12-20T16:41:54.570Z,7.78
2022-12-20T16:44:21.667Z,6.20
2022-12-20T16:46:48.246Z,8.30
2022-12-20T16:49:20.109Z,7.75
2022-12-20T16:51:48.754Z,8.35
2022-12-20T16:54:19.717Z,8.27
2022-12-20T16:56:47.984Z,7.80
2022-12-20T16:59:23.020Z,7.60
2022-12-20T17:01:51.904Z,6.97
2022-12-20T17:04:19.843Z,8.38
2022-12-20T17:06:46.717Z,6.18
2022-12-20T17:11:58.599Z,5.90
2022-12-20T17:14:25.066Z,6.65
2022-12-20T17:16:51.658Z,5.75
2022-12-20T17:19:18.255Z,6.68
2022-12-20T17:24:31.404Z,6.13
2022-12-20T17:26:58.009Z,6.22
2022-12-20T17:29:24.471Z,5.85
2022-12-20T17:31:51.243Z,5.10
2022-12-20T17:34:18.985Z,5.75
2022-12-20T17:36:46.059Z,5.60
2022-12-20T17:39:12.676Z,5.85
2022-12-20T17:41:39.502Z,5.43
2022-12-20T17:44:06.653Z,5.28
2022-12-20T17:46:38.067Z,4.97
2022-12-20T17:49:08.296Z,5.90
2022-12-20T17:51:41.180Z,4.32
2022-12-20T17:54:16.299Z,5.68
2022-12-20T17:56:42.755Z,4.60
2022-12-20T17:59:12.495Z,4.80
2022-12-20T18:01:43.326Z,4.68
2022-12-20T18:04:15.566Z,4.88
2022-12-20T18:06:53.441Z,5.05
2022-12-20T18:09:22.195Z,5.32
2022-12-20T18:11:49.042Z,5.28
2022-12-20T18:14:16.039Z,4.72
2022-12-20T18:16:42.666Z,4.97
2022-12-20T18:19:15.405Z,4.78
2022-12-20T18:21:41.973Z,5.43
2022-12-20T18:24:11.364Z,5.45
2022-12-20T18:26:37.816Z,4.95
2022-12-20T18:29:04.398Z,5.10
2022-12-20T18:31:34.185Z,5.40
2022-12-20T18:34:01.304Z,5.07
2022-12-20T18:36:30.131Z,5.43
2022-12-20T18:38:57.819Z,5.85
2022-12-20T18:41:26.650Z,5.93
2022-12-20T18:43:55.944Z,5.55
2022-12-20T18:46:23.153Z,5.13
2022-12-20T18:48:51.242Z,5.90
2022-12-20T18:51:19.729Z,5.97
2022-12-20T18:53:47.363Z,6.82
2022-12-20T18:56:16.112Z,6.57
2022-12-20T18:58:43.451Z,6.50
2022-12-20T19:01:13.349Z,7.15
2022-12-20T19:03:39.946Z,6.35
2022-12-20T19:06:07.115Z,6.45
2022-12-20T19:08:33.912Z,7.25
2022-12-20T19:11:05.127Z,6.15
2022-12-20T19:13:31.702Z,6.85
2022-12-20T19:16:02.804Z,5.80
2022-12-20T19:18:29.940Z,6.30
2022-12-20T19:21:07.212Z,5.85
2022-12-20T19:23:34.476Z,6.28
2022-12-20T19:26:09.143Z,6.53
2022-12-20T19:28:36.038Z,6.55
2022-12-20T19:31:07.278Z,6.10
2022-12-20T19:33:37.887Z,5.97
2022-12-20T19:36:17.952Z,6.82
2022-12-20T19:38:46.068Z,6.90
2022-12-20T19:43:39.121Z,6.45
2022-12-20T19:46:06.169Z,5.32
2022-12-20T19:52:01.610Z,5.85
2022-12-20T19:54:28.846Z,5.32
2022-12-20T19:59:55.700Z,4.90
2022-12-20T20:02:23.193Z,4.70
2022-12-20T20:04:49.836Z,5.63
2022-12-20T20:07:16.428Z,5.32
2022-12-20T20:09:42.950Z,5.25
2022-12-20T20:12:09.525Z,5.65
2022-12-20T20:14:36.263Z,5.85
2022-12-20T20:17:02.819Z,5.57
2022-12-20T20:19:29.331Z,5.75
2022-12-20T20:21:55.917Z,6.43
2022-12-20T20:24:22.444Z,5.75
2022-12-20T20:26:49.017Z,6.22
2022-12-20T20:29:15.534Z,6.13
2022-12-20T20:31:42.339Z,6.30
2022-12-20T20:34:09.842Z,6.28
2022-12-20T20:36:36.350Z,6.40
2022-12-20T20:39:02.893Z,7.70
2022-12-20T20:41:30.275Z,7.15
2022-12-20T20:43:56.924Z,6.55
2022-12-20T20:46:23.603Z,6.93
2022-12-20T20:48:50.098Z,6.15
2022-12-20T20:51:16.717Z,6.95
2022-12-20T20:53:43.282Z,5.80
2022-12-20T20:56:10.543Z,6.05
2022-12-20T20:58:37.690Z,6.03
2022-12-20T21:01:08.407Z,6.07
2022-12-20T21:03:35.401Z,6.60
2022-12-20T21:08:48.557Z,7.03
2022-12-20T21:11:15.547Z,6.10
2022-12-20T21:13:42.189Z,6.85
2022-12-20T21:16:10.895Z,6.07
2022-12-20T21:18:37.551Z,6.60
2022-12-20T21:21:12.014Z,6.63
2022-12-20T21:23:39.619Z,7.88
2022-12-20T21:26:07.563Z,7.40
2022-12-20T21:28:34.420Z,7.30
2022-12-20T21:31:02.092Z,7.35
2022-12-20T21:33:29.151Z,7.18
2022-12-20T21:36:03.748Z,7.80
2022-12-20T21:41:04.712Z,6.15
2022-12-20T21:45:58.345Z,6.30
2022-12-20T21:48:25.471Z,6.47
2022-12-20T21:51:06.497Z,7.80
2022-12-20T21:53:33.380Z,6.25
2022-12-20T21:56:00.612Z,6.50
2022-12-20T21:58:28.868Z,7.32
2022-12-20T22:00:56.317Z,7.00
2022-12-20T22:03:23.823Z,6.97
2022-12-20T22:05:52.521Z,6.68
2022-12-20T22:08:20.330Z,6.63
2022-12-20T22:10:46.861Z,7.22
2022-12-20T22:13:13.529Z,6.18
2022-12-20T22:15:40.754Z,6.03
2022-12-20T22:18:08.355Z,6.88
2022-12-20T22:20:35.826Z,6.70
2022-12-20T22:23:02.801Z,6.55
2022-12-20T22:25:29.338Z,6.30
2022-12-20T22:27:55.861Z,7.55
2022-12-20T22:30:22.407Z,7.03
2022-12-20T22:32:48.986Z,6.15
2022-12-20T22:35:22.215Z,6.63
2022-12-20T22:37:49.351Z,6.45
2022-12-20T22:40:15.967Z,6.93
2022-12-20T22:42:42.470Z,7.35
2022-12-20T22:45:09.946Z,7.30
2022-12-20T22:47:36.893Z,7.00
2022-12-20T22:50:04.798Z,7.35
2022-12-20T22:52:32.841Z,6.65
2022-12-20T22:54:59.990Z,6.70
2022-12-20T22:57:27.759Z,7.85
2022-12-20T22:59:58.700Z,6.60
2022-12-20T23:02:26.386Z,7.05
2022-12-20T23:04:53.754Z,6.68
2022-12-20T23:07:21.285Z,6.63
2022-12-20T23:09:48.602Z,6.40
2022-12-20T23:12:34.508Z,6.05
2022-12-20T23:15:20.099Z,5.13
2022-12-20T23:17:46.735Z,5.80
2022-12-20T23:20:32.055Z,6.38
2022-12-20T23:22:58.755Z,6.90
2022-12-20T23:25:25.684Z,6.90
2022-12-20T23:27:52.798Z,7.07
2022-12-20T23:30:22.756Z,6.82
2022-12-20T23:32:49.679Z,5.65
2022-12-20T23:35:19.272Z,6.68
2022-12-20T23:37:50.980Z,6.70
2022-12-20T23:40:17.989Z,6.28
2022-12-20T23:42:44.544Z,6.75
2022-12-20T23:45:11.600Z,6.85
2022-12-20T23:47:38.099Z,6.90
2022-12-20T23:50:05.315Z,6.60
2022-12-20T23:52:32.051Z,6.25
2022-12-20T23:54:58.998Z,6.47
2022-12-20T23:57:25.598Z,4.38
2022-12-20T23:59:52.110Z,4.95
